Warning: Javascript must be enabled to use all the features on this page!


Page Loading - Please Wait...

Click to hideNews Bulletins

Peak Streamflow for the Nation

USGS 03275000 WHITEWATER RIVER NEAR ALPINE, IN

Fayette County, Indiana
Hydrologic Unit Code 05080003
Latitude  39°34'27.6", Longitude  85°09'21.2" NAD83
Drainage area 522  square miles
Gage datum 750.19 feet above NGVD29
Output formats
Table
Graph
Tab-separated file
peakfq (watstore) format
Reselect output format
Water
Year
Date Gage
Height
(feet)
Stream-
flow
(cfs)
1929 1929-02-26 14.80 20,900
1930 1930-01-13 12.89 12,700
1931 1931-04-03 7.33 3,580
1932 1932-06-27 10.81 7,870
1933 1933-05-14 14.76 19,200
1934 1934-03-27 8.68 3,730
1935 1935-05-03 9.54 5,080
1936 1936-02-27   7,2001
1937 1937-01-14 16.61 37,100
1938 1938-04-07 13.59 13,500
1939 1939-04-16 14.30 15,400
1940 1940-04-20 11.70 8,530
1941 1941-06-12 7.30 1,900
1942 1942-02-07 12.20 9,760
1943 1943-03-20 15.50 24,000
1944 1944-04-11 15.57 24,800
1945 1945-06-18 13.59 12,400
1946 1946-02-14 11.10 6,970
1947 1947-06-02 14.62 17,200
1948 1948-02-14 13.12 11,200
1949 1949-01-05 16.53 35,900
1950 1950-02-14 15.04 20,000
1951 1951-02-21 15.10 21,800
1952 1952-01-27 15.92 28,500
1953 1953-03-04 10.29 5,820
1954 1954-03-30 8.80 3,770
1955 1955-01-06 9.45 4,560
1956 1956-02-26 14.58 17,600
1957 1957-06-29 14.32 15,900
1958 1958-06-14 14.85 18,900
1959 1959-01-21 16.14 31,600
1960 1960-02-10 10.67 6,380
1961 1961-04-26 14.99 20,300
1962 1962-02-27 12.06 9,720
1963 1963-03-05 16.47 35,900
1964 1964-04-21 13.17 13,100
1965 1965-02-10 12.48 11,500
1966 1966-02-11 8.84 5,080
1967 1966-12-09 11.91 10,200
1968 1968-05-24 15.81 27,600
1969 1969-07-21 14.33 16,800
1970 1970-01-29 11.55 9,500
1971 1971-02-22 12.91 11,200
1972 1972-04-22 9.60 6,240
1973 1973-03-12 11.96 10,300
1974 1974-06-22 16.08 30,700
1975 1975-02-23 14.96 20,300
1976 1976-01-26 12.71 10,700
1977 1977-04-03 10.94 7,300
1978 1978-03-15 13.30 12,100
1979 1979-02-24 13.482 12,100
1980 1980-07-10 12.50 9,100
1981 1981-05-30 10.59 5,730
1982 1982-02-17 14.51 16,400
1983 1983-05-02 15.45 9,270
1984 1984-04-23 15.46 9,320
1985 1985-02-24 17.27 14,300
1986 1985-12-12 16.48 12,100
1987 1986-10-05 17.50 15,000
1988 1988-02-02 14.47 7,240
1989 1989-05-26 19.01 20,000
1990 1990-05-17 17.46 12,500
1991 1990-12-31 19.70 21,500
1992 1992-07-24 16.42 10,400
1993 1993-03-04 15.29 8,110
1994 1993-11-15 16.60 13,500
1995 1995-05-19 13.85 9,550
1996 1996-04-29 15.52 11,900
1997 1997-06-01 16.65 13,900
1998 1998-06-11 15.15 14,300
1999 1999-01-22 18.36 16,700
2000 2000-04-08 17.63 14,200
2001 2001-07-18 17.76 14,600
2002 2002-05-13 18.69 17,900
2003 2003-09-02 18.63 17,700
2004 2004-01-04 18.57 17,400
2005 2005-01-06 20.94 27,600
2006 2006-03-13 17.27 13,000
2007 2007-03-02 17.89 15,000
2008 2008-06-05 19.74 22,100
2009 2009-02-12 14.20 5,290
2010 2010-03-14 15.45 8,260
2011 2011-03-06 18.74 18,000
2012 2011-12-05 14.77 8,490
2013 2013-01-13 14.56 8,170
2014 2013-12-22 19.24 20,000
2015 2015-06-27 13.83 7,130
2016 2015-12-28 16.06 11,400
2017 2017-06-24 16.00 11,300
2018 2018-04-04 17.71 14,800
2019 2019-02-08 17.73 15,900
2020 2020-03-20 15.35 10,700
2021 2021-03-19 11.57 9,160
?
  Peak Gage-Height Qualification Codes.
?
  Peak Streamflow Qualification Codes.